sensor_id;sensor_type;location;lat;lon;timestamp;P1;durP1;ratioP1;P2;durP2;ratioP2
66487;SDS011;53304;54.550;18.526;2022-08-30T00:01:25;1.70;;;0.70;;
66487;SDS011;53304;54.550;18.526;2022-08-30T00:03:55;2.28;;;0.70;;
66487;SDS011;53304;54.550;18.526;2022-08-30T00:06:22;3.67;;;0.88;;
66487;SDS011;53304;54.550;18.526;2022-08-30T00:08:48;3.05;;;0.90;;
66487;SDS011;53304;54.550;18.526;2022-08-30T00:11:21;3.65;;;1.00;;
66487;SDS011;53304;54.550;18.526;2022-08-30T00:13:49;3.28;;;0.90;;
66487;SDS011;53304;54.550;18.526;2022-08-30T00:16:20;2.97;;;1.02;;
66487;SDS011;53304;54.550;18.526;2022-08-30T00:18:49;2.50;;;0.80;;
66487;SDS011;53304;54.550;18.526;2022-08-30T00:21:14;2.28;;;0.85;;
66487;SDS011;53304;54.550;18.526;2022-08-30T00:23:40;1.92;;;0.77;;
66487;SDS011;53304;54.550;18.526;2022-08-30T00:26:10;3.55;;;1.00;;
66487;SDS011;53304;54.550;18.526;2022-08-30T00:28:35;1.58;;;0.80;;
66487;SDS011;53304;54.550;18.526;2022-08-30T00:31:03;3.15;;;0.90;;
66487;SDS011;53304;54.550;18.526;2022-08-30T00:33:32;1.57;;;0.67;;
66487;SDS011;53304;54.550;18.526;2022-08-30T00:36:00;2.17;;;0.73;;
66487;SDS011;53304;54.550;18.526;2022-08-30T00:38:25;2.50;;;1.02;;
66487;SDS011;53304;54.550;18.526;2022-08-30T00:40:53;3.13;;;0.90;;
66487;SDS011;53304;54.550;18.526;2022-08-30T00:43:22;1.83;;;0.65;;
66487;SDS011;53304;54.550;18.526;2022-08-30T00:45:52;2.40;;;0.95;;
66487;SDS011;53304;54.550;18.526;2022-08-30T00:48:20;2.15;;;0.80;;
66487;SDS011;53304;54.550;18.526;2022-08-30T00:50:46;2.85;;;0.70;;
66487;SDS011;53304;54.550;18.526;2022-08-30T00:53:25;1.35;;;0.70;;
66487;SDS011;53304;54.550;18.526;2022-08-30T00:55:54;2.33;;;0.90;;
66487;SDS011;53304;54.550;18.526;2022-08-30T00:58:26;2.05;;;0.90;;
66487;SDS011;53304;54.550;18.526;2022-08-30T01:00:54;2.93;;;0.90;;
66487;SDS011;53304;54.550;18.526;2022-08-30T01:03:21;3.03;;;0.90;;
66487;SDS011;53304;54.550;18.526;2022-08-30T01:05:48;3.08;;;0.77;;
66487;SDS011;53304;54.550;18.526;2022-08-30T01:08:18;1.65;;;0.60;;
66487;SDS011;53304;54.550;18.526;2022-08-30T01:10:46;2.13;;;0.70;;
66487;SDS011;53304;54.550;18.526;2022-08-30T01:13:15;2.00;;;0.80;;
66487;SDS011;53304;54.550;18.526;2022-08-30T01:15:41;4.07;;;0.88;;
66487;SDS011;53304;54.550;18.526;2022-08-30T01:18:08;1.70;;;0.70;;
66487;SDS011;53304;54.550;18.526;2022-08-30T01:20:44;1.27;;;0.70;;
66487;SDS011;53304;54.550;18.526;2022-08-30T01:23:18;3.65;;;0.80;;
66487;SDS011;53304;54.550;18.526;2022-08-30T01:25:46;1.63;;;0.80;;
66487;SDS011;53304;54.550;18.526;2022-08-30T01:28:17;2.35;;;0.80;;
66487;SDS011;53304;54.550;18.526;2022-08-30T01:30:47;2.03;;;0.77;;
66487;SDS011;53304;54.550;18.526;2022-08-30T01:33:13;1.55;;;0.70;;
66487;SDS011;53304;54.550;18.526;2022-08-30T01:35:53;2.47;;;0.90;;
66487;SDS011;53304;54.550;18.526;2022-08-30T01:38:21;3.72;;;0.88;;
66487;SDS011;53304;54.550;18.526;2022-08-30T01:40:49;2.28;;;0.95;;
66487;SDS011;53304;54.550;18.526;2022-08-30T01:43:14;3.22;;;0.80;;
66487;SDS011;53304;54.550;18.526;2022-08-30T01:45:41;1.75;;;0.70;;
66487;SDS011;53304;54.550;18.526;2022-08-30T01:48:07;1.90;;;0.80;;
66487;SDS011;53304;54.550;18.526;2022-08-30T01:50:35;2.72;;;0.80;;
66487;SDS011;53304;54.550;18.526;2022-08-30T01:53:01;2.47;;;0.73;;
66487;SDS011;53304;54.550;18.526;2022-08-30T01:55:26;2.13;;;0.73;;
66487;SDS011;53304;54.550;18.526;2022-08-30T01:57:51;2.85;;;0.90;;
66487;SDS011;53304;54.550;18.526;2022-08-30T02:00:19;2.88;;;0.95;;
66487;SDS011;53304;54.550;18.526;2022-08-30T02:02:47;3.55;;;0.85;;
66487;SDS011;53304;54.550;18.526;2022-08-30T02:05:13;2.15;;;0.73;;
66487;SDS011;53304;54.550;18.526;2022-08-30T02:07:46;2.47;;;0.80;;
66487;SDS011;53304;54.550;18.526;2022-08-30T02:10:11;2.78;;;0.70;;
66487;SDS011;53304;54.550;18.526;2022-08-30T02:12:41;3.17;;;0.70;;
66487;SDS011;53304;54.550;18.526;2022-08-30T02:15:09;2.60;;;0.90;;
66487;SDS011;53304;54.550;18.526;2022-08-30T02:17:34;1.95;;;0.70;;
66487;SDS011;53304;54.550;18.526;2022-08-30T02:20:00;1.58;;;0.80;;
66487;SDS011;53304;54.550;18.526;2022-08-30T02:22:29;3.20;;;1.05;;
66487;SDS011;53304;54.550;18.526;2022-08-30T02:24:59;1.75;;;0.73;;
66487;SDS011;53304;54.550;18.526;2022-08-30T02:27:27;2.60;;;0.90;;
66487;SDS011;53304;54.550;18.526;2022-08-30T02:29:57;2.80;;;0.80;;
66487;SDS011;53304;54.550;18.526;2022-08-30T02:32:25;1.45;;;0.60;;
66487;SDS011;53304;54.550;18.526;2022-08-30T02:34:51;2.05;;;0.90;;
66487;SDS011;53304;54.550;18.526;2022-08-30T02:37:23;3.28;;;0.80;;
66487;SDS011;53304;54.550;18.526;2022-08-30T02:39:49;2.47;;;0.75;;
66487;SDS011;53304;54.550;18.526;2022-08-30T02:42:14;4.43;;;0.80;;
66487;SDS011;53304;54.550;18.526;2022-08-30T02:44:39;3.60;;;1.00;;
66487;SDS011;53304;54.550;18.526;2022-08-30T02:47:05;3.22;;;0.82;;
66487;SDS011;53304;54.550;18.526;2022-08-30T02:49:32;3.00;;;0.70;;
66487;SDS011;53304;54.550;18.526;2022-08-30T02:52:01;1.40;;;0.60;;
66487;SDS011;53304;54.550;18.526;2022-08-30T02:54:28;4.00;;;0.80;;
66487;SDS011;53304;54.550;18.526;2022-08-30T02:56:57;2.22;;;0.93;;
66487;SDS011;53304;54.550;18.526;2022-08-30T02:59:23;2.63;;;0.80;;
66487;SDS011;53304;54.550;18.526;2022-08-30T03:01:50;1.90;;;0.80;;
66487;SDS011;53304;54.550;18.526;2022-08-30T03:04:16;2.03;;;0.60;;
66487;SDS011;53304;54.550;18.526;2022-08-30T03:06:43;1.48;;;0.70;;
66487;SDS011;53304;54.550;18.526;2022-08-30T03:09:11;2.63;;;0.70;;
66487;SDS011;53304;54.550;18.526;2022-08-30T03:11:39;1.90;;;0.70;;
66487;SDS011;53304;54.550;18.526;2022-08-30T03:14:06;0.85;;;0.55;;
66487;SDS011;53304;54.550;18.526;2022-08-30T03:16:36;0.93;;;0.40;;
66487;SDS011;53304;54.550;18.526;2022-08-30T03:19:03;1.25;;;0.68;;
66487;SDS011;53304;54.550;18.526;2022-08-30T03:21:31;1.15;;;0.50;;
66487;SDS011;53304;54.550;18.526;2022-08-30T03:23:59;0.88;;;0.50;;
66487;SDS011;53304;54.550;18.526;2022-08-30T03:26:27;1.95;;;0.50;;
66487;SDS011;53304;54.550;18.526;2022-08-30T03:28:52;3.10;;;0.57;;
66487;SDS011;53304;54.550;18.526;2022-08-30T03:31:20;4.05;;;0.80;;
66487;SDS011;53304;54.550;18.526;2022-08-30T03:33:48;1.75;;;0.70;;
66487;SDS011;53304;54.550;18.526;2022-08-30T03:36:13;2.13;;;0.77;;
66487;SDS011;53304;54.550;18.526;2022-08-30T03:38:38;1.52;;;0.60;;
66487;SDS011;53304;54.550;18.526;2022-08-30T03:41:06;1.85;;;0.50;;
66487;SDS011;53304;54.550;18.526;2022-08-30T03:43:32;2.60;;;0.80;;
66487;SDS011;53304;54.550;18.526;2022-08-30T03:46:00;1.15;;;0.60;;
66487;SDS011;53304;54.550;18.526;2022-08-30T03:48:26;2.03;;;0.50;;
66487;SDS011;53304;54.550;18.526;2022-08-30T03:50:52;2.63;;;0.68;;
66487;SDS011;53304;54.550;18.526;2022-08-30T03:53:17;1.83;;;0.50;;
66487;SDS011;53304;54.550;18.526;2022-08-30T03:55:48;1.70;;;0.63;;
66487;SDS011;53304;54.550;18.526;2022-08-30T03:58:16;4.65;;;0.68;;
66487;SDS011;53304;54.550;18.526;2022-08-30T04:00:43;0.65;;;0.50;;
66487;SDS011;53304;54.550;18.526;2022-08-30T04:03:09;1.75;;;0.57;;
66487;SDS011;53304;54.550;18.526;2022-08-30T04:05:39;1.55;;;0.35;;
66487;SDS011;53304;54.550;18.526;2022-08-30T04:08:04;1.35;;;0.40;;
66487;SDS011;53304;54.550;18.526;2022-08-30T04:10:32;4.32;;;0.73;;
66487;SDS011;53304;54.550;18.526;2022-08-30T04:12:59;1.25;;;0.50;;
66487;SDS011;53304;54.550;18.526;2022-08-30T04:15:26;3.35;;;0.77;;
66487;SDS011;53304;54.550;18.526;2022-08-30T04:17:54;1.98;;;0.50;;
66487;SDS011;53304;54.550;18.526;2022-08-30T04:20:24;1.40;;;0.60;;
66487;SDS011;53304;54.550;18.526;2022-08-30T04:22:52;5.32;;;0.80;;
66487;SDS011;53304;54.550;18.526;2022-08-30T04:25:18;2.60;;;0.40;;
66487;SDS011;53304;54.550;18.526;2022-08-30T04:27:43;2.40;;;0.70;;
66487;SDS011;53304;54.550;18.526;2022-08-30T04:30:15;2.28;;;0.52;;
66487;SDS011;53304;54.550;18.526;2022-08-30T04:32:44;2.00;;;0.50;;
66487;SDS011;53304;54.550;18.526;2022-08-30T04:35:12;0.85;;;0.50;;
66487;SDS011;53304;54.550;18.526;2022-08-30T04:37:40;1.27;;;0.60;;
66487;SDS011;53304;54.550;18.526;2022-08-30T04:40:05;1.45;;;0.63;;
66487;SDS011;53304;54.550;18.526;2022-08-30T04:42:34;1.15;;;0.60;;
66487;SDS011;53304;54.550;18.526;2022-08-30T04:45:06;3.00;;;0.85;;
66487;SDS011;53304;54.550;18.526;2022-08-30T04:47:35;1.70;;;0.70;;
66487;SDS011;53304;54.550;18.526;2022-08-30T04:50:04;1.92;;;0.50;;
66487;SDS011;53304;54.550;18.526;2022-08-30T04:52:31;2.40;;;0.70;;
66487;SDS011;53304;54.550;18.526;2022-08-30T04:54:59;1.08;;;0.50;;
66487;SDS011;53304;54.550;18.526;2022-08-30T04:57:30;2.20;;;0.65;;
66487;SDS011;53304;54.550;18.526;2022-08-30T04:59:55;3.25;;;0.70;;
66487;SDS011;53304;54.550;18.526;2022-08-30T05:02:23;2.20;;;0.60;;
66487;SDS011;53304;54.550;18.526;2022-08-30T05:04:50;4.63;;;0.80;;
66487;SDS011;53304;54.550;18.526;2022-08-30T05:07:34;5.95;;;0.80;;
66487;SDS011;53304;54.550;18.526;2022-08-30T05:10:02;5.07;;;0.70;;
66487;SDS011;53304;54.550;18.526;2022-08-30T05:12:28;6.90;;;0.90;;
66487;SDS011;53304;54.550;18.526;2022-08-30T05:14:56;9.63;;;0.93;;
66487;SDS011;53304;54.550;18.526;2022-08-30T05:17:24;7.40;;;1.10;;
66487;SDS011;53304;54.550;18.526;2022-08-30T05:19:52;10.85;;;1.27;;
66487;SDS011;53304;54.550;18.526;2022-08-30T05:22:17;3.90;;;0.90;;
66487;SDS011;53304;54.550;18.526;2022-08-30T05:24:43;3.35;;;0.73;;
66487;SDS011;53304;54.550;18.526;2022-08-30T05:27:10;6.18;;;0.80;;
66487;SDS011;53304;54.550;18.526;2022-08-30T05:29:36;5.00;;;1.02;;
66487;SDS011;53304;54.550;18.526;2022-08-30T05:32:06;7.07;;;1.00;;
66487;SDS011;53304;54.550;18.526;2022-08-30T05:34:32;4.45;;;0.80;;
66487;SDS011;53304;54.550;18.526;2022-08-30T05:37:00;6.97;;;1.33;;
66487;SDS011;53304;54.550;18.526;2022-08-30T05:39:28;5.95;;;1.10;;
66487;SDS011;53304;54.550;18.526;2022-08-30T05:41:59;4.10;;;1.00;;
66487;SDS011;53304;54.550;18.526;2022-08-30T05:44:24;7.47;;;1.45;;
66487;SDS011;53304;54.550;18.526;2022-08-30T05:46:50;6.32;;;1.10;;
66487;SDS011;53304;54.550;18.526;2022-08-30T05:49:22;7.45;;;1.08;;
66487;SDS011;53304;54.550;18.526;2022-08-30T05:51:48;6.07;;;1.15;;
66487;SDS011;53304;54.550;18.526;2022-08-30T05:54:13;10.18;;;1.35;;
66487;SDS011;53304;54.550;18.526;2022-08-30T05:56:42;3.97;;;0.80;;
66487;SDS011;53304;54.550;18.526;2022-08-30T05:59:10;2.53;;;0.80;;
66487;SDS011;53304;54.550;18.526;2022-08-30T06:01:37;5.20;;;1.25;;
66487;SDS011;53304;54.550;18.526;2022-08-30T06:04:08;5.22;;;0.88;;
66487;SDS011;53304;54.550;18.526;2022-08-30T06:06:38;4.68;;;1.17;;
66487;SDS011;53304;54.550;18.526;2022-08-30T06:09:06;3.13;;;0.90;;
66487;SDS011;53304;54.550;18.526;2022-08-30T06:11:32;4.15;;;1.00;;
66487;SDS011;53304;54.550;18.526;2022-08-30T06:13:59;5.18;;;0.95;;
66487;SDS011;53304;54.550;18.526;2022-08-30T06:16:27;3.33;;;1.00;;
66487;SDS011;53304;54.550;18.526;2022-08-30T06:18:58;4.07;;;0.80;;
66487;SDS011;53304;54.550;18.526;2022-08-30T06:23:53;5.35;;;0.95;;
66487;SDS011;53304;54.550;18.526;2022-08-30T06:26:24;1.27;;;0.60;;
66487;SDS011;53304;54.550;18.526;2022-08-30T06:28:50;1.70;;;0.70;;
66487;SDS011;53304;54.550;18.526;2022-08-30T06:31:21;1.90;;;0.80;;
66487;SDS011;53304;54.550;18.526;2022-08-30T06:33:47;1.58;;;0.73;;
66487;SDS011;53304;54.550;18.526;2022-08-30T06:36:15;2.28;;;0.98;;
66487;SDS011;53304;54.550;18.526;2022-08-30T06:38:44;1.42;;;0.70;;
66487;SDS011;53304;54.550;18.526;2022-08-30T06:41:12;2.33;;;0.70;;
66487;SDS011;53304;54.550;18.526;2022-08-30T06:43:41;2.53;;;0.75;;
66487;SDS011;53304;54.550;18.526;2022-08-30T06:46:10;3.00;;;0.70;;
66487;SDS011;53304;54.550;18.526;2022-08-30T06:48:40;1.58;;;0.57;;
66487;SDS011;53304;54.550;18.526;2022-08-30T06:51:08;1.10;;;0.70;;
66487;SDS011;53304;54.550;18.526;2022-08-30T06:53:33;2.90;;;0.77;;
66487;SDS011;53304;54.550;18.526;2022-08-30T06:56:00;3.28;;;0.90;;
66487;SDS011;53304;54.550;18.526;2022-08-30T06:58:31;2.17;;;0.52;;
66487;SDS011;53304;54.550;18.526;2022-08-30T07:00:58;1.85;;;0.60;;
66487;SDS011;53304;54.550;18.526;2022-08-30T07:03:23;2.47;;;0.65;;
66487;SDS011;53304;54.550;18.526;2022-08-30T07:05:51;2.42;;;0.70;;
66487;SDS011;53304;54.550;18.526;2022-08-30T07:08:17;1.92;;;0.70;;
66487;SDS011;53304;54.550;18.526;2022-08-30T07:10:42;2.90;;;0.75;;
66487;SDS011;53304;54.550;18.526;2022-08-30T07:13:11;1.10;;;0.68;;
66487;SDS011;53304;54.550;18.526;2022-08-30T07:15:39;2.67;;;0.80;;
66487;SDS011;53304;54.550;18.526;2022-08-30T07:18:09;3.50;;;0.60;;
66487;SDS011;53304;54.550;18.526;2022-08-30T07:20:54;3.53;;;0.75;;
66487;SDS011;53304;54.550;18.526;2022-08-30T07:23:22;5.03;;;0.77;;
66487;SDS011;53304;54.550;18.526;2022-08-30T07:25:49;2.58;;;0.80;;
66487;SDS011;53304;54.550;18.526;2022-08-30T07:28:15;2.30;;;0.75;;
66487;SDS011;53304;54.550;18.526;2022-08-30T07:30:43;1.75;;;0.70;;
66487;SDS011;53304;54.550;18.526;2022-08-30T07:33:08;2.88;;;0.90;;
66487;SDS011;53304;54.550;18.526;2022-08-30T07:35:34;2.13;;;0.70;;
66487;SDS011;53304;54.550;18.526;2022-08-30T07:38:02;1.80;;;0.82;;
66487;SDS011;53304;54.550;18.526;2022-08-30T07:40:30;4.38;;;0.80;;
66487;SDS011;53304;54.550;18.526;2022-08-30T07:42:58;3.10;;;0.85;;
66487;SDS011;53304;54.550;18.526;2022-08-30T07:45:26;2.72;;;0.80;;
66487;SDS011;53304;54.550;18.526;2022-08-30T07:47:53;2.67;;;0.80;;
66487;SDS011;53304;54.550;18.526;2022-08-30T07:50:19;2.00;;;0.90;;
66487;SDS011;53304;54.550;18.526;2022-08-30T07:52:49;4.45;;;0.70;;
66487;SDS011;53304;54.550;18.526;2022-08-30T07:55:20;2.15;;;0.85;;
66487;SDS011;53304;54.550;18.526;2022-08-30T07:57:46;2.35;;;0.73;;
66487;SDS011;53304;54.550;18.526;2022-08-30T08:00:11;3.25;;;0.80;;
66487;SDS011;53304;54.550;18.526;2022-08-30T08:02:37;1.92;;;0.73;;
66487;SDS011;53304;54.550;18.526;2022-08-30T08:05:04;3.17;;;0.85;;
66487;SDS011;53304;54.550;18.526;2022-08-30T08:07:32;2.22;;;0.85;;
66487;SDS011;53304;54.550;18.526;2022-08-30T08:09:58;2.83;;;0.73;;
66487;SDS011;53304;54.550;18.526;2022-08-30T08:12:24;1.38;;;0.70;;
66487;SDS011;53304;54.550;18.526;2022-08-30T08:14:49;4.40;;;0.98;;
66487;SDS011;53304;54.550;18.526;2022-08-30T08:17:14;1.05;;;0.68;;
66487;SDS011;53304;54.550;18.526;2022-08-30T08:19:40;1.42;;;0.73;;
66487;SDS011;53304;54.550;18.526;2022-08-30T08:22:05;2.30;;;0.80;;
66487;SDS011;53304;54.550;18.526;2022-08-30T08:24:33;1.30;;;0.77;;
66487;SDS011;53304;54.550;18.526;2022-08-30T08:27:01;1.77;;;0.88;;
66487;SDS011;53304;54.550;18.526;2022-08-30T08:29:26;2.92;;;1.00;;
66487;SDS011;53304;54.550;18.526;2022-08-30T08:31:54;1.85;;;0.77;;
66487;SDS011;53304;54.550;18.526;2022-08-30T08:34:21;3.97;;;1.00;;
66487;SDS011;53304;54.550;18.526;2022-08-30T08:36:49;7.40;;;1.05;;
66487;SDS011;53304;54.550;18.526;2022-08-30T08:39:15;4.18;;;1.00;;
66487;SDS011;53304;54.550;18.526;2022-08-30T08:47:11;4.87;;;1.20;;
66487;SDS011;53304;54.550;18.526;2022-08-30T08:49:39;3.95;;;0.98;;
66487;SDS011;53304;54.550;18.526;2022-08-30T08:52:07;3.90;;;1.00;;
66487;SDS011;53304;54.550;18.526;2022-08-30T08:54:57;1.42;;;0.90;;
66487;SDS011;53304;54.550;18.526;2022-08-30T08:57:28;4.05;;;0.70;;
66487;SDS011;53304;54.550;18.526;2022-08-30T09:00:00;2.85;;;0.90;;
66487;SDS011;53304;54.550;18.526;2022-08-30T09:03:03;3.50;;;0.90;;
66487;SDS011;53304;54.550;18.526;2022-08-30T09:05:24;2.47;;;0.95;;
66487;SDS011;53304;54.550;18.526;2022-08-30T09:07:57;2.25;;;1.05;;
66487;SDS011;53304;54.550;18.526;2022-08-30T09:10:28;3.72;;;1.08;;
66487;SDS011;53304;54.550;18.526;2022-08-30T09:12:54;2.58;;;1.02;;
66487;SDS011;53304;54.550;18.526;2022-08-30T09:15:21;2.33;;;0.90;;
66487;SDS011;53304;54.550;18.526;2022-08-30T09:20:36;3.78;;;0.90;;
66487;SDS011;53304;54.550;18.526;2022-08-30T09:28:14;4.68;;;1.40;;
66487;SDS011;53304;54.550;18.526;2022-08-30T09:31:04;4.03;;;1.30;;
66487;SDS011;53304;54.550;18.526;2022-08-30T09:33:31;5.50;;;1.35;;
66487;SDS011;53304;54.550;18.526;2022-08-30T09:36:09;6.25;;;1.30;;
66487;SDS011;53304;54.550;18.526;2022-08-30T09:41:44;5.72;;;1.38;;
66487;SDS011;53304;54.550;18.526;2022-08-30T09:46:50;4.35;;;1.67;;
66487;SDS011;53304;54.550;18.526;2022-08-30T09:52:08;4.55;;;1.58;;
66487;SDS011;53304;54.550;18.526;2022-08-30T09:54:47;3.05;;;1.40;;
66487;SDS011;53304;54.550;18.526;2022-08-30T09:57:24;4.45;;;1.40;;
66487;SDS011;53304;54.550;18.526;2022-08-30T10:00:22;3.97;;;1.50;;
66487;SDS011;53304;54.550;18.526;2022-08-30T10:06:07;3.83;;;1.65;;
66487;SDS011;53304;54.550;18.526;2022-08-30T10:11:27;3.38;;;1.30;;
66487;SDS011;53304;54.550;18.526;2022-08-30T10:21:56;4.25;;;1.52;;
66487;SDS011;53304;54.550;18.526;2022-08-30T10:24:36;5.32;;;1.42;;
66487;SDS011;53304;54.550;18.526;2022-08-30T10:27:06;3.53;;;1.30;;
66487;SDS011;53304;54.550;18.526;2022-08-30T10:29:42;5.18;;;1.20;;
66487;SDS011;53304;54.550;18.526;2022-08-30T10:32:14;6.07;;;1.30;;
66487;SDS011;53304;54.550;18.526;2022-08-30T10:34:45;3.53;;;1.20;;
66487;SDS011;53304;54.550;18.526;2022-08-30T10:37:35;4.95;;;1.30;;
66487;SDS011;53304;54.550;18.526;2022-08-30T10:40:16;4.25;;;1.42;;
66487;SDS011;53304;54.550;18.526;2022-08-30T10:43:06;4.65;;;1.38;;
66487;SDS011;53304;54.550;18.526;2022-08-30T10:45:39;3.30;;;1.13;;
66487;SDS011;53304;54.550;18.526;2022-08-30T10:48:19;4.85;;;1.20;;
66487;SDS011;53304;54.550;18.526;2022-08-30T10:50:48;3.83;;;1.15;;
66487;SDS011;53304;54.550;18.526;2022-08-30T10:53:29;5.05;;;1.20;;
66487;SDS011;53304;54.550;18.526;2022-08-30T10:58:25;2.58;;;1.02;;
66487;SDS011;53304;54.550;18.526;2022-08-30T11:06:39;3.90;;;1.25;;
66487;SDS011;53304;54.550;18.526;2022-08-30T11:09:13;3.45;;;1.20;;
66487;SDS011;53304;54.550;18.526;2022-08-30T11:14:21;2.40;;;1.00;;
66487;SDS011;53304;54.550;18.526;2022-08-30T11:16:48;2.00;;;0.85;;
66487;SDS011;53304;54.550;18.526;2022-08-30T11:21:58;2.47;;;1.10;;
66487;SDS011;53304;54.550;18.526;2022-08-30T11:31:31;2.88;;;1.15;;
66487;SDS011;53304;54.550;18.526;2022-08-30T11:35:37;3.30;;;1.30;;
66487;SDS011;53304;54.550;18.526;2022-08-30T11:41:28;3.17;;;1.20;;
66487;SDS011;53304;54.550;18.526;2022-08-30T11:44:29;3.80;;;1.20;;
66487;SDS011;53304;54.550;18.526;2022-08-30T11:46:59;4.03;;;1.20;;
66487;SDS011;53304;54.550;18.526;2022-08-30T11:52:10;5.18;;;1.20;;
66487;SDS011;53304;54.550;18.526;2022-08-30T12:00:24;4.53;;;1.23;;
66487;SDS011;53304;54.550;18.526;2022-08-30T12:03:06;2.90;;;1.20;;
66487;SDS011;53304;54.550;18.526;2022-08-30T12:08:01;3.10;;;1.27;;
66487;SDS011;53304;54.550;18.526;2022-08-30T12:21:14;3.17;;;1.08;;
66487;SDS011;53304;54.550;18.526;2022-08-30T12:26:45;2.55;;;1.15;;
66487;SDS011;53304;54.550;18.526;2022-08-30T12:32:01;3.83;;;1.10;;
66487;SDS011;53304;54.550;18.526;2022-08-30T12:40:00;5.65;;;1.30;;
66487;SDS011;53304;54.550;18.526;2022-08-30T12:42:32;2.90;;;1.10;;
66487;SDS011;53304;54.550;18.526;2022-08-30T12:45:10;3.13;;;1.00;;
66487;SDS011;53304;54.550;18.526;2022-08-30T12:47:49;5.55;;;1.20;;
66487;SDS011;53304;54.550;18.526;2022-08-30T12:50:23;2.88;;;1.08;;
66487;SDS011;53304;54.550;18.526;2022-08-30T12:53:01;3.00;;;1.08;;
66487;SDS011;53304;54.550;18.526;2022-08-30T12:55:30;4.05;;;1.20;;
66487;SDS011;53304;54.550;18.526;2022-08-30T12:58:05;2.05;;;0.98;;
66487;SDS011;53304;54.550;18.526;2022-08-30T13:00:34;2.88;;;1.08;;
66487;SDS011;53304;54.550;18.526;2022-08-30T13:05:53;3.90;;;1.10;;
66487;SDS011;53304;54.550;18.526;2022-08-30T13:08:24;5.00;;;1.25;;
66487;SDS011;53304;54.550;18.526;2022-08-30T13:11:00;6.45;;;1.40;;
66487;SDS011;53304;54.550;18.526;2022-08-30T13:13:31;4.70;;;1.00;;
66487;SDS011;53304;54.550;18.526;2022-08-30T13:18:44;4.47;;;1.30;;
66487;SDS011;53304;54.550;18.526;2022-08-30T13:21:19;2.67;;;1.08;;
66487;SDS011;53304;54.550;18.526;2022-08-30T13:23:50;6.72;;;1.20;;
66487;SDS011;53304;54.550;18.526;2022-08-30T13:26:17;5.18;;;1.20;;
66487;SDS011;53304;54.550;18.526;2022-08-30T13:28:55;2.75;;;1.20;;
66487;SDS011;53304;54.550;18.526;2022-08-30T13:31:26;3.83;;;1.10;;
66487;SDS011;53304;54.550;18.526;2022-08-30T13:33:54;3.35;;;1.23;;
66487;SDS011;53304;54.550;18.526;2022-08-30T13:36:20;2.22;;;0.98;;
66487;SDS011;53304;54.550;18.526;2022-08-30T13:38:57;5.43;;;1.40;;
66487;SDS011;53304;54.550;18.526;2022-08-30T13:41:24;3.40;;;1.00;;
66487;SDS011;53304;54.550;18.526;2022-08-30T13:43:53;3.58;;;1.15;;
66487;SDS011;53304;54.550;18.526;2022-08-30T13:46:21;2.75;;;0.93;;
66487;SDS011;53304;54.550;18.526;2022-08-30T13:48:48;4.65;;;0.93;;
66487;SDS011;53304;54.550;18.526;2022-08-30T13:51:25;3.25;;;1.10;;
66487;SDS011;53304;54.550;18.526;2022-08-30T13:53:50;2.30;;;0.93;;
66487;SDS011;53304;54.550;18.526;2022-08-30T13:56:20;4.45;;;1.20;;
66487;SDS011;53304;54.550;18.526;2022-08-30T13:58:48;3.28;;;1.00;;
66487;SDS011;53304;54.550;18.526;2022-08-30T14:01:16;6.55;;;1.00;;
66487;SDS011;53304;54.550;18.526;2022-08-30T14:03:41;3.47;;;1.10;;
66487;SDS011;53304;54.550;18.526;2022-08-30T14:06:09;2.67;;;1.15;;
66487;SDS011;53304;54.550;18.526;2022-08-30T14:08:34;3.25;;;1.10;;
66487;SDS011;53304;54.550;18.526;2022-08-30T14:11:02;4.28;;;1.15;;
66487;SDS011;53304;54.550;18.526;2022-08-30T14:13:28;3.85;;;1.05;;
66487;SDS011;53304;54.550;18.526;2022-08-30T14:15:53;2.72;;;1.15;;
66487;SDS011;53304;54.550;18.526;2022-08-30T14:18:26;1.85;;;0.88;;
66487;SDS011;53304;54.550;18.526;2022-08-30T14:20:52;4.40;;;1.08;;
66487;SDS011;53304;54.550;18.526;2022-08-30T14:23:17;1.98;;;0.90;;
66487;SDS011;53304;54.550;18.526;2022-08-30T14:25:42;3.22;;;1.00;;
66487;SDS011;53304;54.550;18.526;2022-08-30T14:28:08;2.42;;;1.10;;
66487;SDS011;53304;54.550;18.526;2022-08-30T14:30:35;3.97;;;1.25;;
66487;SDS011;53304;54.550;18.526;2022-08-30T14:33:03;2.53;;;1.00;;
66487;SDS011;53304;54.550;18.526;2022-08-30T14:35:29;3.05;;;1.10;;
66487;SDS011;53304;54.550;18.526;2022-08-30T14:37:54;3.10;;;1.13;;
66487;SDS011;53304;54.550;18.526;2022-08-30T14:40:22;4.00;;;1.10;;
66487;SDS011;53304;54.550;18.526;2022-08-30T14:42:48;2.65;;;0.90;;
66487;SDS011;53304;54.550;18.526;2022-08-30T14:45:13;4.25;;;1.10;;
66487;SDS011;53304;54.550;18.526;2022-08-30T14:47:41;2.78;;;1.13;;
66487;SDS011;53304;54.550;18.526;2022-08-30T14:50:09;2.15;;;1.02;;
66487;SDS011;53304;54.550;18.526;2022-08-30T14:52:34;5.40;;;1.20;;
66487;SDS011;53304;54.550;18.526;2022-08-30T14:55:00;3.30;;;0.90;;
66487;SDS011;53304;54.550;18.526;2022-08-30T14:57:26;2.78;;;1.10;;
66487;SDS011;53304;54.550;18.526;2022-08-30T14:59:51;3.92;;;1.20;;
66487;SDS011;53304;54.550;18.526;2022-08-30T15:02:17;3.58;;;1.05;;
66487;SDS011;53304;54.550;18.526;2022-08-30T15:04:44;3.47;;;1.02;;
66487;SDS011;53304;54.550;18.526;2022-08-30T15:07:15;2.90;;;1.05;;
66487;SDS011;53304;54.550;18.526;2022-08-30T15:09:42;7.85;;;1.10;;
66487;SDS011;53304;54.550;18.526;2022-08-30T15:12:08;4.35;;;1.13;;
66487;SDS011;53304;54.550;18.526;2022-08-30T15:14:37;4.78;;;1.15;;
66487;SDS011;53304;54.550;18.526;2022-08-30T15:17:02;2.50;;;1.00;;
66487;SDS011;53304;54.550;18.526;2022-08-30T15:19:28;2.03;;;0.90;;
66487;SDS011;53304;54.550;18.526;2022-08-30T15:21:57;0.95;;;0.73;;
66487;SDS011;53304;54.550;18.526;2022-08-30T15:24:23;2.13;;;1.00;;
66487;SDS011;53304;54.550;18.526;2022-08-30T15:26:51;2.08;;;1.00;;
66487;SDS011;53304;54.550;18.526;2022-08-30T15:29:17;4.07;;;1.20;;
66487;SDS011;53304;54.550;18.526;2022-08-30T15:31:43;3.83;;;1.25;;
66487;SDS011;53304;54.550;18.526;2022-08-30T15:34:10;6.80;;;1.40;;
66487;SDS011;53304;54.550;18.526;2022-08-30T15:36:37;3.70;;;1.15;;
66487;SDS011;53304;54.550;18.526;2022-08-30T15:39:06;3.88;;;1.10;;
66487;SDS011;53304;54.550;18.526;2022-08-30T15:41:32;6.40;;;1.20;;
66487;SDS011;53304;54.550;18.526;2022-08-30T15:43:59;4.10;;;1.60;;
66487;SDS011;53304;54.550;18.526;2022-08-30T15:46:31;5.72;;;1.15;;
66487;SDS011;53304;54.550;18.526;2022-08-30T15:49:01;8.52;;;1.20;;
66487;SDS011;53304;54.550;18.526;2022-08-30T15:51:30;7.60;;;1.30;;
66487;SDS011;53304;54.550;18.526;2022-08-30T15:53:59;6.20;;;1.08;;
66487;SDS011;53304;54.550;18.526;2022-08-30T15:56:24;12.25;;;1.67;;
66487;SDS011;53304;54.550;18.526;2022-08-30T15:58:52;6.40;;;1.27;;
66487;SDS011;53304;54.550;18.526;2022-08-30T16:01:17;6.50;;;1.13;;
66487;SDS011;53304;54.550;18.526;2022-08-30T16:03:42;7.15;;;1.10;;
66487;SDS011;53304;54.550;18.526;2022-08-30T16:06:13;8.77;;;1.40;;
66487;SDS011;53304;54.550;18.526;2022-08-30T16:08:40;8.02;;;1.30;;
66487;SDS011;53304;54.550;18.526;2022-08-30T16:11:09;7.28;;;1.42;;
66487;SDS011;53304;54.550;18.526;2022-08-30T16:13:35;6.30;;;1.30;;
66487;SDS011;53304;54.550;18.526;2022-08-30T16:16:02;6.93;;;1.55;;
66487;SDS011;53304;54.550;18.526;2022-08-30T16:18:28;5.30;;;1.40;;
66487;SDS011;53304;54.550;18.526;2022-08-30T16:21:04;6.97;;;1.30;;
66487;SDS011;53304;54.550;18.526;2022-08-30T16:23:34;9.80;;;1.58;;
66487;SDS011;53304;54.550;18.526;2022-08-30T16:26:02;5.28;;;1.25;;